Time;durP1;ratioP1;P1;durP2;ratioP2;P2;SDS_P1;SDS_P2;PMS_P1;PMS_P2;Temp;Humidity;BMP_temperature;BMP_pressure;BME280_temperature;BME280_humidity;BME280_pressure;Samples;Min_cycle;Max_cycle;Signal;HPM_P1;HPM_P2
2023/01/10 08:52:50;;;;;;;7.47;3.07;;;2.10;99.90;;;;;;5132845;27;20268;-75
2023/01/10 08:56:57;;;;;;;15.63;7.37;;;2.30;99.90;;;;;;5132036;27;20300;-76
2023/01/10 08:59:23;;;;;;;14.47;8.83;;;2.60;99.90;;;;;;5132045;27;20224;-75
2023/01/10 09:01:49;;;;;;;5.40;2.90;;;2.80;99.90;;;;;;5130917;28;20179;-76
2023/01/10 09:04:16;;;;;;;9.00;5.60;;;3.00;99.90;;;;;;5131875;27;20217;-76
2023/01/10 09:06:41;;;;;;;4.47;2.77;;;3.00;99.90;;;;;;5131646;27;20168;-75
2023/01/10 09:13:28;;;;;;;11.43;5.73;;;2.70;99.90;;;;;;5132859;27;20591;-76
2023/01/10 09:18:49;;;;;;;7.87;4.37;;;2.70;99.90;;;;;;5132446;27;20293;-76
2023/01/10 09:25:11;;;;;;;5.97;2.77;;;2.70;99.90;;;;;;5132662;27;20263;-76
2023/01/10 09:30:26;;;;;;;6.07;2.33;;;2.80;99.90;;;;;;5132560;27;20630;-76
2023/01/10 09:34:12;;;;;;;6.63;2.33;;;2.90;99.90;;;;;;5132325;27;20275;-76
2023/01/10 09:36:37;;;;;;;3.10;1.93;;;2.90;99.90;;;;;;5131796;28;20176;-76
2023/01/10 09:39:03;;;;;;;7.00;4.03;;;3.00;99.90;;;;;;5131936;28;20188;-77
2023/01/10 09:45:45;;;;;;;4.93;2.03;;;3.00;99.90;;;;;;5132604;27;20278;-76
2023/01/10 09:51:38;;;;;;;9.90;4.00;;;2.90;99.90;;;;;;5132571;27;20334;-75
2023/01/10 09:56:22;;;;;;;8.17;3.30;;;2.90;99.90;;;;;;5132160;27;20286;-76
2023/01/10 09:58:48;;;;;;;6.53;2.83;;;2.90;99.90;;;;;;5131849;28;20254;-76
2023/01/10 10:01:28;;;;;;;7.43;3.63;;;2.90;99.90;;;;;;5130589;28;20172;-76
2023/01/10 10:04:04;;;;;;;9.60;4.50;;;3.00;99.90;;;;;;5131872;27;20233;-76
2023/01/10 10:06:29;;;;;;;9.23;3.43;;;3.20;99.90;;;;;;5130408;28;20169;-76
2023/01/10 10:08:56;;;;;;;3.87;2.00;;;3.30;99.90;;;;;;5130429;28;20203;-76
2023/01/10 10:11:25;;;;;;;5.77;2.40;;;3.50;99.90;;;;;;5130521;28;20216;-76
2023/01/10 10:13:59;;;;;;;6.00;2.97;;;3.50;99.90;;;;;;5131640;27;20605;-75
2023/01/10 10:16:37;;;;;;;5.63;3.27;;;3.40;99.90;;;;;;5131510;27;20181;-76
2023/01/10 10:25:42;;;;;;;5.73;2.87;;;2.90;99.90;;;;;;5112003;27;20645;-75
2023/01/10 10:35:29;;;;;;;5.83;2.07;;;2.90;99.90;;;;;;5132739;27;20595;-76
2023/01/10 10:44:07;;;;;;;3.87;2.40;;;2.90;99.90;;;;;;5153854;27;20264;-76
2023/01/10 10:48:58;;;;;;;5.60;2.40;;;3.00;99.90;;;;;;5132861;27;20281;-76
2023/01/10 10:52:34;;;;;;;5.23;2.00;;;3.10;99.90;;;;;;5137875;27;20289;-76
2023/01/10 10:55:03;;;;;;;12.33;4.20;;;3.20;99.90;;;;;;5131918;28;20172;-76
2023/01/10 10:57:31;;;;;;;3.53;1.97;;;3.20;99.90;;;;;;5131659;28;20199;-75
2023/01/10 10:59:58;;;;;;;19.57;8.00;;;3.20;99.90;;;;;;5130569;28;20178;-76
2023/01/10 11:02:30;;;;;;;3.60;2.37;;;3.20;99.90;;;;;;5131782;27;20254;-76
2023/01/10 11:05:02;;;;;;;7.23;2.47;;;3.20;99.90;;;;;;5131909;27;20201;-80
2023/01/10 11:07:35;;;;;;;6.67;3.17;;;3.30;99.90;;;;;;5130320;28;20194;-76
2023/01/10 11:12:59;;;;;;;8.37;4.77;;;3.50;99.90;;;;;;5131931;28;20199;-76
2023/01/10 11:15:35;;;;;;;4.53;2.10;;;3.60;99.90;;;;;;5131484;27;20180;-77
2023/01/10 11:18:22;;;;;;;5.90;2.17;;;3.60;99.90;;;;;;5130120;28;20193;-77
2023/01/10 11:21:10;;;;;;;4.60;2.60;;;3.70;99.90;;;;;;5131765;27;20255;-76
2023/01/10 11:23:39;;;;;;;4.93;2.20;;;3.80;99.90;;;;;;5131465;27;20578;-76
2023/01/10 11:26:33;;;;;;;6.60;2.87;;;3.90;99.90;;;;;;5131410;27;20238;-76
2023/01/10 11:29:41;;;;;;;6.17;4.50;;;4.00;99.90;;;;;;5131500;27;20192;-77
2023/01/10 11:32:16;;;;;;;6.63;4.30;;;3.90;99.90;;;;;;5129924;28;20191;-76
2023/01/10 11:34:54;;;;;;;7.30;2.20;;;3.90;99.90;;;;;;5132014;27;20164;-78
2023/01/10 11:37:30;;;;;;;5.77;3.90;;;3.90;99.90;;;;;;5136870;27;20196;-77
2023/01/10 11:40:14;;;;;;;2.27;1.57;;;3.80;99.90;;;;;;5130087;28;20262;-76
2023/01/10 11:42:40;;;;;;;6.23;2.33;;;3.80;99.90;;;;;;5130176;28;20172;-78
2023/01/10 11:45:30;;;;;;;7.10;2.80;;;3.70;99.90;;;;;;5131425;27;20192;-77
2023/01/10 11:48:05;;;;;;;3.90;2.10;;;3.70;99.90;;;;;;5131336;27;20196;-77
2023/01/10 11:50:34;;;;;;;4.93;2.87;;;3.70;99.90;;;;;;5131256;27;20209;-77
2023/01/10 11:53:00;;;;;;;6.13;3.47;;;3.80;99.90;;;;;;5131537;27;20670;-77
2023/01/10 11:55:33;;;;;;;6.03;2.37;;;3.90;99.90;;;;;;5131228;27;20199;-78
2023/01/10 11:58:07;;;;;;;4.60;2.83;;;4.00;99.90;;;;;;5130264;28;20200;-77
2023/01/10 12:00:41;;;;;;;3.10;2.13;;;4.00;99.90;;;;;;5131274;27;20173;-77
2023/01/10 12:03:19;;;;;;;8.17;5.97;;;4.10;99.90;;;;;;5123754;27;20190;-78
2023/01/10 12:05:51;;;;;;;4.37;2.50;;;4.50;99.90;;;;;;5118525;28;20177;-79
2023/01/10 12:08:26;;;;;;;6.63;2.47;;;4.60;99.90;;;;;;5117381;28;20648;-77
2023/01/10 12:11:00;;;;;;;15.70;6.90;;;5.00;99.90;;;;;;5115699;28;20189;-77
2023/01/10 12:13:29;;;;;;;10.00;4.30;;;5.20;99.90;;;;;;5117577;28;20196;-77
2023/01/10 12:16:29;;;;;;;5.73;2.77;;;5.60;99.90;;;;;;5115836;28;20227;-77
2023/01/10 12:19:00;;;;;;;3.03;2.07;;;5.40;99.90;;;;;;5118936;28;20196;-78
2023/01/10 12:21:44;;;;;;;6.00;2.23;;;5.00;99.90;;;;;;5116703;28;20184;-77
2023/01/10 12:24:27;;;;;;;4.83;1.57;;;4.80;99.90;;;;;;5116702;28;20643;-77
2023/01/10 12:26:53;;;;;;;2.90;1.60;;;4.40;99.90;;;;;;5116917;28;20171;-77
2023/01/10 12:29:31;;;;;;;3.03;1.60;;;4.20;99.90;;;;;;5116912;28;20173;-78
2023/01/10 12:31:59;;;;;;;4.80;2.27;;;4.00;99.90;;;;;;5116748;28;20186;-77
2023/01/10 12:34:40;;;;;;;4.90;1.63;;;4.00;99.90;;;;;;5116462;28;20166;-77
2023/01/10 12:37:21;;;;;;;7.10;3.50;;;4.20;99.90;;;;;;5116294;28;20170;-77
2023/01/10 12:40:00;;;;;;;5.80;2.20;;;4.10;99.90;;;;;;5115150;28;20180;-77
2023/01/10 12:45:41;;;;;;;7.00;2.13;;;3.90;99.90;;;;;;5118311;28;20185;-77
2023/01/10 12:48:16;;;;;;;5.53;2.27;;;3.90;99.90;;;;;;5116239;28;20187;-78
2023/01/10 12:50:52;;;;;;;13.37;4.50;;;3.90;99.90;;;;;;5114688;28;20205;-77
2023/01/10 12:53:27;;;;;;;4.50;2.50;;;3.90;99.90;;;;;;5116140;28;20722;-77
2023/01/10 12:55:56;;;;;;;5.57;3.07;;;3.90;99.90;;;;;;5116864;28;20162;-78
2023/01/10 12:58:38;;;;;;;4.07;2.03;;;4.00;99.90;;;;;;5116687;28;20325;-77
2023/01/10 13:01:05;;;;;;;6.03;2.20;;;4.00;99.90;;;;;;5117020;28;20162;-78
2023/01/10 13:03:33;;;;;;;7.03;2.57;;;3.90;99.90;;;;;;5117115;27;20636;-77
2023/01/10 13:06:00;;;;;;;5.00;2.50;;;3.90;99.90;;;;;;5115711;28;20190;-77
2023/01/10 13:08:33;;;;;;;3.30;2.17;;;3.80;99.90;;;;;;5115962;27;20198;-76
2023/01/10 13:11:00;;;;;;;2.77;1.93;;;3.80;99.90;;;;;;5116108;28;20533;-77
2023/01/10 13:13:29;;;;;;;4.07;2.30;;;3.70;99.90;;;;;;5116943;28;20234;-77
2023/01/10 13:16:15;;;;;;;26.73;11.77;;;3.60;99.90;;;;;;5113496;28;20174;-77
2023/01/10 13:19:24;;;;;;;4.90;2.40;;;3.60;99.90;;;;;;5115456;28;20216;-77
2023/01/10 13:22:10;;;;;;;39.27;16.50;;;3.60;99.90;;;;;;5057500;28;20182;-78
2023/01/10 13:24:35;;;;;;;5.50;2.80;;;3.50;99.90;;;;;;5073390;28;20241;-78
2023/01/10 13:27:02;;;;;;;4.67;1.67;;;3.50;99.90;;;;;;5099347;28;20189;-77
2023/01/10 13:29:36;;;;;;;4.37;1.90;;;3.50;99.90;;;;;;5115985;28;20568;-78
2023/01/10 13:32:26;;;;;;;6.70;3.90;;;3.40;99.90;;;;;;5113935;28;20654;-77
2023/01/10 13:34:52;;;;;;;6.70;3.47;;;3.40;99.90;;;;;;5115416;28;20168;-78
2023/01/10 13:37:34;;;;;;;6.13;4.17;;;3.40;99.90;;;;;;5113976;28;20224;-78
2023/01/10 13:40:01;;;;;;;7.37;2.97;;;3.50;99.90;;;;;;5114465;28;20157;-77
2023/01/10 13:45:22;;;;;;;6.17;3.43;;;3.80;99.90;;;;;;5115417;28;20256;-78
2023/01/10 13:47:53;;;;;;;16.77;7.87;;;4.00;99.90;;;;;;5114969;28;20720;-77
2023/01/10 13:50:22;;;;;;;6.97;3.67;;;4.10;99.90;;;;;;5115242;28;20688;-77
2023/01/10 13:52:48;;;;;;;6.43;3.13;;;4.10;99.90;;;;;;5114006;28;20412;-77
2023/01/10 13:55:27;;;;;;;10.77;3.90;;;4.20;99.90;;;;;;5115167;28;20702;-78
2023/01/10 13:57:58;;;;;;;10.67;4.77;;;4.00;99.90;;;;;;5114892;28;20234;-77
2023/01/10 14:03:54;;;;;;;7.87;4.20;;;4.00;99.90;;;;;;5114952;28;20207;-77
2023/01/10 14:06:29;;;;;;;9.30;2.20;;;4.10;99.90;;;;;;5112676;28;20272;-78
2023/01/10 14:08:55;;;;;;;9.07;2.60;;;4.00;99.90;;;;;;5114557;28;20188;-78
2023/01/10 14:11:24;;;;;;;5.73;2.43;;;3.90;99.90;;;;;;5114693;28;20683;-77
2023/01/10 14:13:56;;;;;;;8.93;2.67;;;3.90;99.90;;;;;;5113585;28;20273;-77
2023/01/10 14:16:33;;;;;;;2.70;2.17;;;3.90;99.90;;;;;;5114226;28;20180;-77
2023/01/10 14:19:00;;;;;;;6.63;2.50;;;3.90;99.90;;;;;;5114984;28;20738;-78
2023/01/10 14:21:28;;;;;;;9.97;4.10;;;3.90;99.90;;;;;;5116272;28;20214;-77
2023/01/10 14:23:56;;;;;;;13.10;5.80;;;3.80;99.90;;;;;;5115741;28;20182;-78
2023/01/10 14:37:36;;;;;;;13.87;5.17;;;3.40;99.90;;;;;;5131805;27;20292;-75
2023/01/10 14:43:21;;;;;;;3.23;2.23;;;3.40;99.90;;;;;;5133141;27;20281;-77
